createdAt,value
2019-03-06T00:01:15.695Z,-54
2019-03-06T00:03:45.501Z,-55
2019-03-06T00:06:17.064Z,-54
2019-03-06T00:08:46.672Z,-54
2019-03-06T00:11:16.670Z,-54
2019-03-06T00:13:46.441Z,-57
2019-03-06T00:16:16.172Z,-57
2019-03-06T00:18:45.907Z,-52
2019-03-06T00:21:15.669Z,-54
2019-03-06T00:23:45.540Z,-57
2019-03-06T00:26:15.341Z,-57
2019-03-06T00:28:45.173Z,-56
2019-03-06T00:31:14.911Z,-56
2019-03-06T00:33:44.803Z,-57
2019-03-06T00:36:16.268Z,-57
2019-03-06T00:38:46.100Z,-54
2019-03-06T00:41:17.436Z,-54
2019-03-06T00:43:47.169Z,-58
2019-03-06T00:46:17.085Z,-59
2019-03-06T00:48:46.748Z,-59
2019-03-06T00:51:16.573Z,-57
2019-03-06T00:53:46.303Z,-54
2019-03-06T00:56:16.435Z,-54
2019-03-06T00:58:46.119Z,-54
2019-03-06T01:01:16.554Z,-55
2019-03-06T01:03:46.413Z,-54
2019-03-06T01:06:16.263Z,-55
2019-03-06T01:08:45.960Z,-55
2019-03-06T01:11:15.766Z,-60
2019-03-06T01:13:45.505Z,-58
2019-03-06T01:16:15.288Z,-60
2019-03-06T01:18:45.100Z,-57
2019-03-06T01:21:15.045Z,-54
2019-03-06T01:23:44.789Z,-57
2019-03-06T01:26:14.506Z,-54
2019-03-06T01:28:44.298Z,-57
2019-03-06T01:31:14.170Z,-58
2019-03-06T01:33:45.512Z,-56
2019-03-06T01:36:19.876Z,-54
2019-03-06T01:39:03.821Z,-54
2019-03-06T01:41:50.229Z,-53
2019-03-06T01:44:27.507Z,-58
2019-03-06T01:46:57.240Z,-53
2019-03-06T01:49:26.985Z,-60
2019-03-06T01:51:56.683Z,-56
2019-03-06T01:54:26.572Z,-57
2019-03-06T01:56:56.278Z,-56
2019-03-06T01:59:26.092Z,-54
2019-03-06T02:01:55.874Z,-53
2019-03-06T02:04:25.753Z,-82
2019-03-06T02:06:55.558Z,-80
2019-03-06T02:09:28.261Z,-81
2019-03-06T02:11:58.195Z,-81
2019-03-06T02:14:27.997Z,-81
2019-03-06T02:16:57.760Z,-80
2019-03-06T02:19:27.473Z,-80
2019-03-06T02:21:57.415Z,-80
2019-03-06T02:24:27.129Z,-79
2019-03-06T02:26:56.954Z,-80
2019-03-06T02:29:26.826Z,-80
2019-03-06T02:31:56.515Z,-81
2019-03-06T02:34:26.203Z,-80
2019-03-06T02:36:55.930Z,-81
2019-03-06T02:39:25.660Z,-81
2019-03-06T02:41:55.372Z,-82
2019-03-06T02:44:25.037Z,-80
2019-03-06T02:46:54.757Z,-81
2019-03-06T02:49:24.450Z,-80
2019-03-06T02:51:54.175Z,-79
2019-03-06T02:54:23.842Z,-81
2019-03-06T02:56:53.619Z,-81
2019-03-06T02:59:27.699Z,-80
2019-03-06T03:02:01.742Z,-80
2019-03-06T03:04:35.645Z,-79
2019-03-06T03:07:07.072Z,-79
2019-03-06T03:09:37.024Z,-79
2019-03-06T03:12:06.669Z,-80
2019-03-06T03:14:36.445Z,-80
2019-03-06T03:17:06.487Z,-80
2019-03-06T03:19:36.298Z,-82
2019-03-06T03:22:06.485Z,-80
2019-03-06T03:24:36.153Z,-81
2019-03-06T03:27:06.051Z,-81
2019-03-06T03:29:35.689Z,-80
2019-03-06T03:32:05.695Z,-79
2019-03-06T03:34:35.630Z,-80
2019-03-06T03:37:05.471Z,-80
2019-03-06T03:39:35.208Z,-80
2019-03-06T03:42:05.465Z,-81
2019-03-06T03:44:35.101Z,-81
2019-03-06T03:47:05.124Z,-79
2019-03-06T03:49:34.874Z,-82
2019-03-06T03:52:04.681Z,-80
2019-03-06T03:54:34.323Z,-81
2019-03-06T03:57:04.149Z,-80
2019-03-06T03:59:33.980Z,-79
2019-03-06T04:02:03.693Z,-81
2019-03-06T04:04:33.417Z,-79
2019-03-06T04:07:03.288Z,-80
2019-03-06T04:09:33.267Z,-81
2019-03-06T04:12:02.928Z,-80
2019-03-06T04:14:32.593Z,-81
2019-03-06T04:17:02.595Z,-81
2019-03-06T04:19:32.327Z,-82
2019-03-06T04:22:02.053Z,-81
2019-03-06T04:24:31.914Z,-82
2019-03-06T04:27:01.939Z,-80
2019-03-06T04:29:31.808Z,-81
2019-03-06T04:32:01.493Z,-80
2019-03-06T04:34:31.187Z,-80
2019-03-06T04:37:01.040Z,-80
2019-03-06T04:39:30.736Z,-81
2019-03-06T04:42:00.522Z,-82
2019-03-06T04:44:30.260Z,-84
2019-03-06T04:46:59.958Z,-81
2019-03-06T04:49:30.067Z,-79
2019-03-06T04:51:59.850Z,-82
2019-03-06T04:54:29.627Z,-83
2019-03-06T04:57:03.926Z,-83
2019-03-06T04:59:34.608Z,-81
2019-03-06T05:02:04.307Z,-82
2019-03-06T05:04:34.171Z,-81
2019-03-06T05:07:04.071Z,-81
2019-03-06T05:09:33.915Z,-81
2019-03-06T05:12:03.882Z,-81
2019-03-06T05:14:33.579Z,-81
2019-03-06T05:17:17.676Z,-82
2019-03-06T05:19:47.454Z,-81
2019-03-06T05:22:17.107Z,-81
2019-03-06T05:24:46.802Z,-81
2019-03-06T05:27:16.634Z,-82
2019-03-06T05:29:46.428Z,-82
2019-03-06T05:32:37.084Z,-80
2019-03-06T05:35:26.127Z,-80
2019-03-06T05:38:09.581Z,-80
2019-03-06T05:40:39.350Z,-80
2019-03-06T05:43:09.170Z,-80
2019-03-06T05:45:38.908Z,-82
2019-03-06T05:48:08.664Z,-81
2019-03-06T05:50:38.374Z,-80
2019-03-06T05:53:08.117Z,-80
2019-03-06T05:55:37.870Z,-80
2019-03-06T05:58:07.901Z,-82
2019-03-06T06:00:37.614Z,-81
2019-03-06T06:03:07.398Z,-81
2019-03-06T06:05:37.069Z,-82
2019-03-06T06:08:06.864Z,-81
2019-03-06T06:10:36.973Z,-81
2019-03-06T06:13:06.867Z,-82
2019-03-06T06:15:36.839Z,-81
2019-03-06T06:18:06.531Z,-80
2019-03-06T06:20:36.205Z,-80
2019-03-06T06:23:10.492Z,-80
2019-03-06T06:25:40.286Z,-80
2019-03-06T06:28:10.294Z,-81
2019-03-06T06:30:40.061Z,-81
2019-03-06T06:33:11.462Z,-81
2019-03-06T06:35:41.278Z,-82
2019-03-06T06:38:11.285Z,-84
2019-03-06T06:40:41.169Z,-84
2019-03-06T06:43:10.822Z,-82
2019-03-06T06:45:40.672Z,-82
2019-03-06T06:48:16.263Z,-81
2019-03-06T06:51:01.552Z,-82
2019-03-06T06:53:59.865Z,-81
2019-03-06T06:57:07.615Z,-83
2019-03-06T06:59:56.814Z,-82
2019-03-06T07:03:15.677Z,-80
2019-03-06T07:05:47.025Z,-83
2019-03-06T07:08:20.947Z,-81
2019-03-06T07:11:01.024Z,-80
2019-03-06T07:13:47.370Z,-83
2019-03-06T07:16:34.611Z,-81
2019-03-06T07:19:12.335Z,-84
2019-03-06T07:21:49.376Z,-81
2019-03-06T07:24:20.923Z,-81
2019-03-06T07:27:02.168Z,-82
2019-03-06T07:29:31.648Z,-83
2019-03-06T07:32:11.601Z,-80
2019-03-06T07:35:00.597Z,-82
2019-03-06T07:37:40.655Z,-78
2019-03-06T07:40:12.457Z,-80
2019-03-06T07:42:46.375Z,-79
2019-03-06T07:45:51.873Z,-81
2019-03-06T07:48:25.893Z,-81
2019-03-06T07:50:59.884Z,-80
2019-03-06T07:54:08.122Z,-81
2019-03-06T07:56:43.565Z,-80
2019-03-06T07:59:13.369Z,-81
2019-03-06T08:02:12.270Z,-81
2019-03-06T08:04:50.104Z,-80
2019-03-06T08:07:20.083Z,-81
2019-03-06T08:09:50.548Z,-80
2019-03-06T08:12:24.765Z,-78
2019-03-06T08:15:12.259Z,-79
2019-03-06T08:17:58.895Z,-83
2019-03-06T08:20:42.246Z,-80
2019-03-06T08:23:13.579Z,-81
2019-03-06T08:25:46.553Z,-84
2019-03-06T08:28:16.497Z,-79
2019-03-06T08:30:57.098Z,-82
2019-03-06T08:33:26.945Z,-82
2019-03-06T08:35:56.774Z,-82
2019-03-06T08:38:26.607Z,-83
2019-03-06T08:41:03.825Z,-86
2019-03-06T08:43:27.783Z,-82
2019-03-06T08:46:09.618Z,-82
2019-03-06T08:48:57.351Z,-83
2019-03-06T08:51:35.138Z,-83
2019-03-06T08:54:15.339Z,-83
2019-03-06T08:56:46.710Z,-82
2019-03-06T08:59:18.750Z,-83
2019-03-06T09:02:00.516Z,-82
2019-03-06T09:04:31.013Z,-81
2019-03-06T09:07:18.417Z,-81
2019-03-06T09:09:56.508Z,-84
2019-03-06T09:12:29.062Z,-82
2019-03-06T09:15:09.125Z,-82
2019-03-06T09:17:58.920Z,-83
2019-03-06T09:20:41.116Z,-83
2019-03-06T09:23:23.218Z,-83
2019-03-06T09:25:51.609Z,-83
2019-03-06T09:28:36.605Z,-84
2019-03-06T09:31:14.554Z,-83
2019-03-06T09:34:01.985Z,-83
2019-03-06T09:36:33.636Z,-85
2019-03-06T09:39:19.836Z,-83
2019-03-06T09:42:07.218Z,-82
2019-03-06T09:44:50.725Z,-84
2019-03-06T09:47:31.056Z,-84
2019-03-06T09:50:02.727Z,-78
2019-03-06T09:52:50.295Z,-83
2019-03-06T09:55:25.775Z,-83
2019-03-06T09:57:57.386Z,-84
2019-03-06T10:00:32.796Z,-84
2019-03-06T10:03:20.456Z,-83
2019-03-06T10:05:54.639Z,-84
2019-03-06T10:08:44.317Z,-85
2019-03-06T10:11:27.277Z,-86
2019-03-06T10:13:58.644Z,-84
2019-03-06T10:16:39.235Z,-83
2019-03-06T10:19:11.669Z,-83
2019-03-06T10:21:41.449Z,-83
2019-03-06T10:24:11.567Z,-83
2019-03-06T10:26:41.464Z,-84
2019-03-06T10:29:11.373Z,-82
2019-03-06T10:31:41.257Z,-82
2019-03-06T10:34:11.204Z,-83
2019-03-06T10:36:40.972Z,-83
2019-03-06T10:39:15.995Z,-83
2019-03-06T10:41:45.888Z,-81
2019-03-06T10:44:15.874Z,-83
2019-03-06T10:46:45.805Z,-83
2019-03-06T10:49:15.768Z,-83
2019-03-06T10:51:45.664Z,-83
2019-03-06T10:54:15.537Z,-83
2019-03-06T10:56:45.299Z,-82
2019-03-06T10:59:15.175Z,-83
2019-03-06T11:01:45.175Z,-83
2019-03-06T11:04:31.750Z,-83
2019-03-06T11:07:01.734Z,-84
2019-03-06T11:09:31.893Z,-85
2019-03-06T11:12:01.791Z,-82
2019-03-06T11:14:31.990Z,-82
2019-03-06T11:17:01.800Z,-83
2019-03-06T11:19:31.959Z,-82
2019-03-06T11:22:01.875Z,-82
2019-03-06T11:24:32.161Z,-82
2019-03-06T11:27:02.346Z,-82
2019-03-06T11:29:32.332Z,-83
2019-03-06T11:32:02.432Z,-82
2019-03-06T11:34:32.346Z,-82
2019-03-06T11:37:02.517Z,-80
2019-03-06T11:39:32.452Z,-82
2019-03-06T11:42:02.516Z,-83
2019-03-06T11:44:32.321Z,-83
2019-03-06T11:47:02.249Z,-83
2019-03-06T11:49:32.010Z,-82
2019-03-06T11:52:03.581Z,-83
2019-03-06T11:54:33.622Z,-82
2019-03-06T11:57:03.447Z,-83
2019-03-06T11:59:33.331Z,-81
2019-03-06T12:02:03.280Z,-84
2019-03-06T12:04:33.523Z,-81
2019-03-06T12:07:03.459Z,-87
2019-03-06T12:09:33.735Z,-87
2019-03-06T12:12:03.842Z,-83
2019-03-06T12:14:34.033Z,-85
2019-03-06T12:17:03.998Z,-84
2019-03-06T12:19:34.338Z,-83
2019-03-06T12:22:04.488Z,-81
2019-03-06T12:24:34.265Z,-83
2019-03-06T12:27:04.250Z,-82
2019-03-06T12:29:34.053Z,-82
2019-03-06T12:32:05.370Z,-83
2019-03-06T12:34:35.186Z,-84
2019-03-06T12:37:05.222Z,-81
2019-03-06T12:39:34.981Z,-81
2019-03-06T12:42:13.766Z,-80
2019-03-06T12:44:36.482Z,-77
2019-03-06T12:47:06.378Z,-77
2019-03-06T12:49:36.204Z,-78
2019-03-06T12:52:06.418Z,-77
2019-03-06T12:54:36.211Z,-77
2019-03-06T12:57:06.867Z,-76
2019-03-06T12:59:36.763Z,-76
2019-03-06T13:02:06.867Z,-77
2019-03-06T13:04:36.774Z,-77
2019-03-06T13:07:06.550Z,-77
2019-03-06T13:09:37.617Z,-77
2019-03-06T13:12:07.740Z,-77
2019-03-06T13:14:37.649Z,-77
2019-03-06T13:17:07.942Z,-77
2019-03-06T13:19:37.896Z,-76
2019-03-06T13:22:11.165Z,-76
2019-03-06T13:24:39.323Z,-77
2019-03-06T13:27:09.302Z,-77
2019-03-06T13:29:39.070Z,-77
2019-03-06T13:32:11.710Z,-77
2019-03-06T13:34:40.305Z,-76
2019-03-06T13:37:10.053Z,-77
2019-03-06T13:39:40.207Z,-77
2019-03-06T13:42:09.955Z,-77
2019-03-06T13:44:39.785Z,-77
2019-03-06T13:47:09.575Z,-76
2019-03-06T13:49:39.250Z,-76
2019-03-06T13:52:09.074Z,-76
2019-03-06T13:54:38.736Z,-76
2019-03-06T13:57:10.081Z,-75
2019-03-06T13:59:39.913Z,-76
2019-03-06T14:02:10.169Z,-77
2019-03-06T14:04:39.947Z,-76
2019-03-06T14:07:09.848Z,-76
2019-03-06T14:09:39.725Z,-77
2019-03-06T14:12:09.495Z,-76
2019-03-06T14:14:39.200Z,-76
2019-03-06T14:17:08.939Z,-76
2019-03-06T14:19:38.771Z,-75
2019-03-06T14:22:08.617Z,-76
2019-03-06T14:24:38.365Z,-76
2019-03-06T14:27:09.499Z,-76
2019-03-06T14:29:39.379Z,-77
2019-03-06T14:32:14.678Z,-74
2019-03-06T14:34:40.676Z,-76
2019-03-06T14:37:10.498Z,-77
2019-03-06T14:39:40.311Z,-76
2019-03-06T14:42:10.231Z,-76
2019-03-06T14:44:40.484Z,-76
2019-03-06T14:47:11.146Z,-80
2019-03-06T14:49:40.948Z,-83
2019-03-06T14:52:10.838Z,-80
2019-03-06T14:54:40.813Z,-82
2019-03-06T14:57:10.753Z,-81
2019-03-06T14:59:40.644Z,-81
2019-03-06T15:02:10.737Z,-81
2019-03-06T15:04:40.513Z,-81
2019-03-06T15:07:10.328Z,-81
2019-03-06T15:09:40.162Z,-82
2019-03-06T15:12:09.863Z,-81
2019-03-06T15:14:39.617Z,-81
2019-03-06T15:17:09.411Z,-80
2019-03-06T15:19:39.381Z,-81
2019-03-06T15:22:09.182Z,-81
2019-03-06T15:24:41.646Z,-81
2019-03-06T15:27:10.463Z,-81
2019-03-06T15:29:40.791Z,-82
2019-03-06T15:32:10.600Z,-82
2019-03-06T15:34:40.402Z,-81
2019-03-06T15:37:10.273Z,-82
2019-03-06T15:39:48.257Z,-81
2019-03-06T15:42:12.208Z,-82
2019-03-06T15:44:42.057Z,-80
2019-03-06T15:47:11.815Z,-81
2019-03-06T15:49:41.932Z,-80
2019-03-06T15:52:12.202Z,-81
2019-03-06T15:54:42.100Z,-81
2019-03-06T15:57:12.193Z,-81
2019-03-06T15:59:42.050Z,-81
2019-03-06T16:02:11.967Z,-80
2019-03-06T16:04:42.120Z,-81
2019-03-06T16:07:11.871Z,-81
2019-03-06T16:09:41.867Z,-80
2019-03-06T16:12:12.444Z,-82
2019-03-06T16:14:42.790Z,-81
2019-03-06T16:17:12.708Z,-81
2019-03-06T16:19:42.437Z,-79
2019-03-06T16:22:13.215Z,-78
2019-03-06T16:24:43.004Z,-79
2019-03-06T16:27:12.913Z,-79
2019-03-06T16:29:42.649Z,-79
2019-03-06T16:32:12.565Z,-79
2019-03-06T16:34:42.282Z,-79
2019-03-06T16:37:12.155Z,-78
2019-03-06T16:39:42.353Z,-78
2019-03-06T16:42:12.209Z,-79
2019-03-06T16:44:42.092Z,-78
2019-03-06T16:47:12.958Z,-78
2019-03-06T16:49:42.939Z,-79
2019-03-06T16:52:13.401Z,-78
2019-03-06T16:54:43.284Z,-78
2019-03-06T16:57:13.131Z,-77
2019-03-06T16:59:43.063Z,-78
2019-03-06T17:02:13.174Z,-80
2019-03-06T17:04:43.146Z,-78
2019-03-06T17:07:13.208Z,-78
2019-03-06T17:09:43.220Z,-79
2019-03-06T17:12:13.387Z,-79
2019-03-06T17:14:44.507Z,-78
2019-03-06T17:17:14.355Z,-79
2019-03-06T17:19:44.435Z,-79
2019-03-06T17:22:14.565Z,-78
2019-03-06T17:24:44.283Z,-78
2019-03-06T17:27:14.228Z,-79
2019-03-06T17:29:44.428Z,-80
2019-03-06T17:32:14.304Z,-79
2019-03-06T17:34:43.987Z,-79
2019-03-06T17:37:13.837Z,-79
2019-03-06T17:39:43.627Z,-78
2019-03-06T17:42:13.633Z,-78
2019-03-06T17:44:43.492Z,-79
2019-03-06T17:47:13.214Z,-80
2019-03-06T17:49:42.982Z,-79
2019-03-06T17:52:12.793Z,-79
2019-03-06T17:54:42.512Z,-81
2019-03-06T17:57:12.697Z,-79
2019-03-06T17:59:43.297Z,-85
2019-03-06T18:02:13.472Z,-84
2019-03-06T18:04:43.284Z,-83
2019-03-06T18:07:13.445Z,-84
2019-03-06T18:09:43.478Z,-83
2019-03-06T18:12:13.260Z,-81
2019-03-06T18:14:42.952Z,-82
2019-03-06T18:17:12.937Z,-81
2019-03-06T18:19:42.721Z,-83
2019-03-06T18:22:12.585Z,-83
2019-03-06T18:24:42.798Z,-83
2019-03-06T18:27:12.681Z,-82
2019-03-06T18:29:42.483Z,-80
2019-03-06T18:32:12.348Z,-83
2019-03-06T18:34:42.128Z,-84
2019-03-06T18:37:12.050Z,-84
2019-03-06T18:39:41.829Z,-84
2019-03-06T18:42:11.686Z,-84
2019-03-06T18:44:41.467Z,-86
2019-03-06T18:47:11.281Z,-85
2019-03-06T18:49:41.172Z,-84
2019-03-06T18:52:10.906Z,-83
2019-03-06T18:54:40.766Z,-82
2019-03-06T18:57:10.672Z,-84
2019-03-06T18:59:40.463Z,-83
2019-03-06T19:02:10.354Z,-83
2019-03-06T19:04:40.183Z,-82
2019-03-06T19:07:10.090Z,-83
2019-03-06T19:09:40.006Z,-83
2019-03-06T19:12:09.902Z,-83
2019-03-06T19:14:39.663Z,-82
2019-03-06T19:17:09.509Z,-83
2019-03-06T19:19:39.615Z,-83
2019-03-06T19:22:09.441Z,-82
2019-03-06T19:24:39.349Z,-82
2019-03-06T19:27:09.180Z,-82
2019-03-06T19:29:39.114Z,-82
2019-03-06T19:32:08.961Z,-82
2019-03-06T19:34:38.694Z,-81
2019-03-06T19:37:08.564Z,-82
2019-03-06T19:39:38.213Z,-83
2019-03-06T19:42:08.026Z,-82
2019-03-06T19:44:37.858Z,-82
2019-03-06T19:47:07.775Z,-82
2019-03-06T19:49:37.950Z,-80
2019-03-06T19:52:07.893Z,-82
2019-03-06T19:54:37.755Z,-80
2019-03-06T19:57:07.823Z,-83
2019-03-06T19:59:37.633Z,-81
2019-03-06T20:02:08.126Z,-84
2019-03-06T20:04:38.284Z,-82
2019-03-06T20:07:08.260Z,-81
2019-03-06T20:09:38.358Z,-82
2019-03-06T20:12:08.721Z,-80
2019-03-06T20:14:38.604Z,-82
2019-03-06T20:17:08.443Z,-81
2019-03-06T20:19:38.433Z,-81
2019-03-06T20:22:08.296Z,-82
2019-03-06T20:24:38.064Z,-82
2019-03-06T20:27:08.032Z,-81
2019-03-06T20:29:37.863Z,-82
2019-03-06T20:32:07.933Z,-81
2019-03-06T20:34:37.799Z,-82
2019-03-06T20:37:08.028Z,-82
2019-03-06T20:39:38.142Z,-81
2019-03-06T20:42:08.105Z,-82
2019-03-06T20:44:37.833Z,-80
2019-03-06T20:47:07.800Z,-82
2019-03-06T20:49:37.484Z,-82
2019-03-06T20:52:07.318Z,-82
2019-03-06T20:54:37.067Z,-81
2019-03-06T20:57:07.028Z,-81
2019-03-06T20:59:36.690Z,-81
2019-03-06T21:02:06.632Z,-81
2019-03-06T21:04:36.492Z,-81
2019-03-06T21:07:06.264Z,-82
2019-03-06T21:09:36.071Z,-82
2019-03-06T21:12:05.897Z,-82
2019-03-06T21:14:35.823Z,-82
2019-03-06T21:17:07.087Z,-79
2019-03-06T21:19:36.887Z,-80
2019-03-06T21:22:07.071Z,-81
2019-03-06T21:24:36.960Z,-83
2019-03-06T21:27:06.857Z,-84
2019-03-06T21:29:36.663Z,-82
2019-03-06T21:32:06.592Z,-82
2019-03-06T21:34:36.526Z,-84
2019-03-06T21:37:06.585Z,-82
2019-03-06T21:39:36.323Z,-85
2019-03-06T21:42:06.170Z,-84
2019-03-06T21:44:36.132Z,-84
2019-03-06T21:47:06.031Z,-86
2019-03-06T21:49:35.930Z,-82
2019-03-06T21:52:05.900Z,-82
2019-03-06T21:54:35.743Z,-81
2019-03-06T21:57:05.757Z,-84
2019-03-06T21:59:35.659Z,-84
2019-03-06T22:02:05.524Z,-84
2019-03-06T22:04:35.386Z,-84
2019-03-06T22:07:05.684Z,-84
2019-03-06T22:09:36.218Z,-84
2019-03-06T22:12:06.180Z,-83
2019-03-06T22:14:35.866Z,-83
2019-03-06T22:17:05.824Z,-83
2019-03-06T22:19:35.648Z,-83
2019-03-06T22:22:05.583Z,-84
2019-03-06T22:24:35.373Z,-82
2019-03-06T22:27:05.305Z,-84
2019-03-06T22:29:35.345Z,-82
2019-03-06T22:32:05.201Z,-83
2019-03-06T22:34:34.979Z,-83
2019-03-06T22:37:04.743Z,-83
2019-03-06T22:39:34.454Z,-83
2019-03-06T22:42:04.283Z,-83
2019-03-06T22:44:34.176Z,-84
2019-03-06T22:47:03.999Z,-84
2019-03-06T22:49:33.689Z,-85
2019-03-06T22:52:03.411Z,-83
2019-03-06T22:54:33.271Z,-84
2019-03-06T22:57:03.084Z,-82
2019-03-06T22:59:32.837Z,-84
2019-03-06T23:02:02.804Z,-84
2019-03-06T23:04:32.662Z,-84
2019-03-06T23:07:02.566Z,-84
2019-03-06T23:09:32.430Z,-84
2019-03-06T23:12:02.165Z,-83
2019-03-06T23:14:32.308Z,-85
2019-03-06T23:17:02.131Z,-84
2019-03-06T23:19:31.947Z,-82
2019-03-06T23:22:01.748Z,-85
2019-03-06T23:24:31.533Z,-84
2019-03-06T23:27:01.375Z,-84
2019-03-06T23:29:31.123Z,-83
2019-03-06T23:32:00.840Z,-83
2019-03-06T23:34:30.543Z,-82
2019-03-06T23:37:00.253Z,-84
2019-03-06T23:39:30.012Z,-83
2019-03-06T23:42:00.017Z,-84
2019-03-06T23:44:29.756Z,-82
2019-03-06T23:46:59.443Z,-84
2019-03-06T23:49:29.169Z,-81
2019-03-06T23:52:00.188Z,-83
2019-03-06T23:54:30.201Z,-83
2019-03-06T23:57:00.085Z,-83
2019-03-06T23:59:29.927Z,-83
